CST,Max TemperatureF,Mean TemperatureF,Min TemperatureF,Max Dew PointF,MeanDew PointF,Min DewpointF,Max Humidity, Mean Humidity, Min Humidity, Max Sea Level PressureIn, Mean Sea Level PressureIn, Min Sea Level PressureIn, Max VisibilityMiles, Mean VisibilityMiles, Min VisibilityMiles, Max Wind SpeedMPH, Mean Wind SpeedMPH, Max Gust SpeedMPH,PrecipitationIn, CloudCover, Events, WindDirDegrees
2012-12-1,59,46,34,55,45,32,91,86,80,30.03,29.88,29.77,10,3,0,12,7,16,0.00,7,Fog,158
2012-12-2,59,48,38,52,45,36,91,84,56,30.03,29.94,29.86,10,4,0,16,6,18,0.00,5,Fog-Rain,156
2012-12-3,69,56,42,59,45,28,92,70,47,30.05,29.80,29.65,10,7,0,22,13,29,0.00,4,Fog,229
2012-12-4,58,44,30,29,25,20,67,51,25,30.36,30.20,30.06,10,10,10,13,8,18,0.00,0,,308
2012-12-5,46,34,23,35,26,18,80,63,48,30.38,30.20,29.98,10,10,10,20,11,24,0.00,0,,123
2012-12-6,50,44,38,41,36,32,84,66,50,29.99,29.93,29.89,10,10,10,16,10,23,0.02,4,Rain,248
2012-12-7,43,38,33,34,29,25,82,69,47,29.99,29.95,29.91,10,10,10,13,9,16,0.00,6,,26
2012-12-8,40,32,25,34,27,20,90,73,62,30.03,29.98,29.93,10,9,1,13,7,,0.03,3,Snow,84
2012-12-9,37,28,20,34,28,14,91,84,74,29.95,29.88,29.82,10,6,1,25,11,36,0.11,8,Rain-Snow,224
2012-12-10,29,22,15,15,11,7,77,64,41,30.01,29.95,29.91,10,10,10,22,14,31,0.00,4,,268
2012-12-11,42,32,22,25,20,9,73,61,47,30.03,29.94,29.88,10,10,10,20,9,26,0.00,3,,230
2012-12-12,53,42,30,21,18,12,68,44,24,30.05,30.02,29.98,10,10,10,22,12,33,0.03,0,,191
2012-12-13,50,38,26,22,17,13,79,44,30,30.10,30.03,29.99,10,10,10,18,12,25,0.00,0,,216
2012-12-14,49,36,22,39,27,19,88,69,45,30.10,29.95,29.71,10,10,10,15,7,,0.02,2,Rain,121
2012-12-15,46,40,35,45,40,32,97,93,79,29.69,29.56,29.47,10,6,0,17,12,26,0.39,8,Rain,185
2012-12-16,35,29,23,32,27,21,96,88,81,29.80,29.74,29.64,10,7,1,16,10,22,0.00,7,,310
2012-12-17,31,26,21,29,23,20,94,92,87,29.79,29.73,29.67,10,6,2,9,5,,0.00,8,,66
2012-12-18,33,30,28,32,29,26,96,92,86,29.87,29.66,29.47,10,5,1,16,8,22,0.00,7,,257
2012-12-19,33,30,27,31,29,25,96,94,90,29.99,29.88,29.71,5,3,0,28,8,32,0.13,6,Snow,89
2012-12-20,31,21,11,30,18,7,95,87,80,30.08,29.82,29.64,10,10,7,37,28,46,0.08,5,,325
2012-12-21,19,13,7,12,7,2,89,79,68,30.28,30.23,30.08,10,10,10,20,11,25,0.00,0,,288
2012-12-22,27,18,10,20,13,6,89,82,70,30.22,30.03,29.92,10,10,10,13,5,,0.00,0,,164
2012-12-23,19,14,9,16,11,6,93,87,81,30.06,30.00,29.97,10,7,3,16,11,,0.00,3,,21
2012-12-24,18,10,3,16,10,-2,93,84,76,30.23,30.06,29.95,10,7,2,18,10,23,0.00,5,Snow,320
2012-12-25,8,4,-1,3,-1,-6,82,80,76,30.44,30.35,30.24,10,10,10,20,13,22,0.00,0,,347
2012-12-26,15,7,-1,10,3,-5,90,82,76,30.32,30.24,30.17,10,10,10,14,10,,0.00,0,,349
2012-12-27,23,14,5,19,11,3,89,85,81,30.20,30.11,30.03,10,10,7,13,6,,0.00,4,Snow,70
2012-12-28,24,18,13,22,19,11,93,91,87,30.02,29.98,29.93,7,4,1,12,7,,0.00,7,Snow,17
2012-12-29,18,14,9,16,9,6,90,84,77,30.21,30.14,30.02,10,7,2,16,9,21,0.00,4,Snow,274
2012-12-30,36,20,5,25,15,2,91,79,59,30.24,30.11,29.96,10,10,7,22,8,28,0.00,0,,199
2012-12-31,21,12,3,14,9,-2,86,77,69,30.24,30.16,30.03,10,10,10,20,12,24,0.00,1,,329